sensor_id;sensor_type;location;lat;lon;timestamp;temperature;humidity
66144;SHT31;52947;50.842;6.084;2023-05-14T00:02:27;10.08;95.57
66144;SHT31;52947;50.842;6.084;2023-05-14T00:04:55;10.09;95.76
66144;SHT31;52947;50.842;6.084;2023-05-14T00:07:23;10.11;95.49
66144;SHT31;52947;50.842;6.084;2023-05-14T00:09:56;10.16;95.50
66144;SHT31;52947;50.842;6.084;2023-05-14T00:12:24;10.12;95.30
66144;SHT31;52947;50.842;6.084;2023-05-14T00:14:54;10.15;95.69
66144;SHT31;52947;50.842;6.084;2023-05-14T00:17:22;10.12;95.08
66144;SHT31;52947;50.842;6.084;2023-05-14T00:19:49;10.08;95.14
66144;SHT31;52947;50.842;6.084;2023-05-14T00:22:17;9.98;95.20
66144;SHT31;52947;50.842;6.084;2023-05-14T00:24:45;9.91;95.21
66144;SHT31;52947;50.842;6.084;2023-05-14T00:27:13;9.94;95.57
66144;SHT31;52947;50.842;6.084;2023-05-14T00:29:41;9.98;95.55
66144;SHT31;52947;50.842;6.084;2023-05-14T00:32:10;10.08;95.53
66144;SHT31;52947;50.842;6.084;2023-05-14T00:34:38;9.91;94.94
66144;SHT31;52947;50.842;6.084;2023-05-14T00:37:06;9.78;94.99
66144;SHT31;52947;50.842;6.084;2023-05-14T00:39:33;9.67;95.05
66144;SHT31;52947;50.842;6.084;2023-05-14T00:42:01;9.60;95.28
66144;SHT31;52947;50.842;6.084;2023-05-14T00:44:29;9.57;95.62
66144;SHT31;52947;50.842;6.084;2023-05-14T00:46:57;9.47;95.58
66144;SHT31;52947;50.842;6.084;2023-05-14T00:49:27;9.41;95.41
66144;SHT31;52947;50.842;6.084;2023-05-14T00:51:56;9.37;95.57
66144;SHT31;52947;50.842;6.084;2023-05-14T00:54:26;9.27;95.61
66144;SHT31;52947;50.842;6.084;2023-05-14T00:56:55;9.27;96.00
66144;SHT31;52947;50.842;6.084;2023-05-14T00:59:22;9.23;96.01
66144;SHT31;52947;50.842;6.084;2023-05-14T01:01:50;9.22;96.21
66144;SHT31;52947;50.842;6.084;2023-05-14T01:04:18;9.17;96.17
66144;SHT31;52947;50.842;6.084;2023-05-14T01:06:53;9.10;96.10
66144;SHT31;52947;50.842;6.084;2023-05-14T01:09:27;9.03;96.02
66144;SHT31;52947;50.842;6.084;2023-05-14T01:12:01;9.06;96.65
66144;SHT31;52947;50.842;6.084;2023-05-14T01:14:35;9.19;96.75
66144;SHT31;52947;50.842;6.084;2023-05-14T01:17:08;9.29;96.82
66144;SHT31;52947;50.842;6.084;2023-05-14T01:19:38;9.30;96.75
66144;SHT31;52947;50.842;6.084;2023-05-14T01:22:08;9.19;96.32
66144;SHT31;52947;50.842;6.084;2023-05-14T01:24:37;9.12;96.29
66144;SHT31;52947;50.842;6.084;2023-05-14T01:27:09;9.10;96.55
66144;SHT31;52947;50.842;6.084;2023-05-14T01:29:42;9.23;96.95
66144;SHT31;52947;50.842;6.084;2023-05-14T01:32:12;9.19;96.59
66144;SHT31;52947;50.842;6.084;2023-05-14T01:34:40;9.10;96.46
66144;SHT31;52947;50.842;6.084;2023-05-14T01:37:10;9.07;96.67
66144;SHT31;52947;50.842;6.084;2023-05-14T01:39:40;9.16;97.03
66144;SHT31;52947;50.842;6.084;2023-05-14T01:42:08;9.12;96.82
66144;SHT31;52947;50.842;6.084;2023-05-14T01:44:37;8.99;96.27
66144;SHT31;52947;50.842;6.084;2023-05-14T01:47:05;8.89;96.27
66144;SHT31;52947;50.842;6.084;2023-05-14T01:49:33;8.86;96.69
66144;SHT31;52947;50.842;6.084;2023-05-14T01:52:03;8.83;96.66
66144;SHT31;52947;50.842;6.084;2023-05-14T01:54:32;8.82;96.87
66144;SHT31;52947;50.842;6.084;2023-05-14T01:57:00;8.75;96.80
66144;SHT31;52947;50.842;6.084;2023-05-14T01:59:27;8.79;96.27
66144;SHT31;52947;50.842;6.084;2023-05-14T02:01:56;8.65;96.12
66144;SHT31;52947;50.842;6.084;2023-05-14T02:04:24;8.75;96.26
66144;SHT31;52947;50.842;6.084;2023-05-14T02:06:52;8.75;96.63
66144;SHT31;52947;50.842;6.084;2023-05-14T02:09:23;8.99;96.60
66144;SHT31;52947;50.842;6.084;2023-05-14T02:11:52;9.05;96.17
66144;SHT31;52947;50.842;6.084;2023-05-14T02:14:20;9.07;95.29
66144;SHT31;52947;50.842;6.084;2023-05-14T02:16:48;8.89;95.34
66144;SHT31;52947;50.842;6.084;2023-05-14T02:19:16;8.79;95.73
66144;SHT31;52947;50.842;6.084;2023-05-14T02:21:44;9.03;96.43
66144;SHT31;52947;50.842;6.084;2023-05-14T02:24:12;9.02;96.18
66144;SHT31;52947;50.842;6.084;2023-05-14T02:26:40;9.06;96.02
66144;SHT31;52947;50.842;6.084;2023-05-14T02:29:09;9.00;95.85
66144;SHT31;52947;50.842;6.084;2023-05-14T02:31:37;8.82;95.73
66144;SHT31;52947;50.842;6.084;2023-05-14T02:34:05;8.62;95.59
66144;SHT31;52947;50.842;6.084;2023-05-14T02:36:33;8.69;96.51
66144;SHT31;52947;50.842;6.084;2023-05-14T02:39:01;8.75;96.29
66144;SHT31;52947;50.842;6.084;2023-05-14T02:41:30;8.75;96.25
66144;SHT31;52947;50.842;6.084;2023-05-14T02:43:58;8.73;95.98
66144;SHT31;52947;50.842;6.084;2023-05-14T02:46:27;8.62;96.19
66144;SHT31;52947;50.842;6.084;2023-05-14T02:48:55;8.59;96.46
66144;SHT31;52947;50.842;6.084;2023-05-14T02:51:23;8.69;96.62
66144;SHT31;52947;50.842;6.084;2023-05-14T02:53:52;8.83;96.15
66144;SHT31;52947;50.842;6.084;2023-05-14T02:56:19;8.71;95.97
66144;SHT31;52947;50.842;6.084;2023-05-14T02:58:47;8.69;96.02
66144;SHT31;52947;50.842;6.084;2023-05-14T03:01:15;8.51;95.66
66144;SHT31;52947;50.842;6.084;2023-05-14T03:03:46;8.35;95.82
66144;SHT31;52947;50.842;6.084;2023-05-14T03:06:14;8.25;95.93
66144;SHT31;52947;50.842;6.084;2023-05-14T03:08:42;8.13;95.95
66144;SHT31;52947;50.842;6.084;2023-05-14T03:11:10;8.16;96.58
66144;SHT31;52947;50.842;6.084;2023-05-14T03:13:38;8.21;96.93
66144;SHT31;52947;50.842;6.084;2023-05-14T03:16:06;8.31;97.14
66144;SHT31;52947;50.842;6.084;2023-05-14T03:18:35;8.52;97.04
66144;SHT31;52947;50.842;6.084;2023-05-14T03:21:04;8.61;96.59
66144;SHT31;52947;50.842;6.084;2023-05-14T03:23:32;8.61;96.18
66144;SHT31;52947;50.842;6.084;2023-05-14T03:26:00;8.71;96.19
66144;SHT31;52947;50.842;6.084;2023-05-14T03:28:29;8.78;95.76
66144;SHT31;52947;50.842;6.084;2023-05-14T03:30:58;8.75;95.50
66144;SHT31;52947;50.842;6.084;2023-05-14T03:33:26;8.76;95.45
66144;SHT31;52947;50.842;6.084;2023-05-14T03:35:54;8.83;95.19
66144;SHT31;52947;50.842;6.084;2023-05-14T03:38:24;8.73;95.14
66144;SHT31;52947;50.842;6.084;2023-05-14T03:40:51;8.47;95.07
66144;SHT31;52947;50.842;6.084;2023-05-14T03:43:19;8.23;95.26
66144;SHT31;52947;50.842;6.084;2023-05-14T03:45:48;8.11;95.70
66144;SHT31;52947;50.842;6.084;2023-05-14T03:48:18;8.31;96.84
66144;SHT31;52947;50.842;6.084;2023-05-14T03:50:46;8.35;96.57
66144;SHT31;52947;50.842;6.084;2023-05-14T03:53:14;8.49;96.24
66144;SHT31;52947;50.842;6.084;2023-05-14T03:55:45;8.54;96.03
66144;SHT31;52947;50.842;6.084;2023-05-14T03:58:13;8.56;95.88
66144;SHT31;52947;50.842;6.084;2023-05-14T04:00:41;8.56;95.95
66144;SHT31;52947;50.842;6.084;2023-05-14T04:03:09;8.65;95.89
66144;SHT31;52947;50.842;6.084;2023-05-14T04:05:37;8.75;95.13
66144;SHT31;52947;50.842;6.084;2023-05-14T04:08:05;8.78;94.86
66144;SHT31;52947;50.842;6.084;2023-05-14T04:10:33;8.68;95.14
66144;SHT31;52947;50.842;6.084;2023-05-14T04:13:02;8.64;95.34
66144;SHT31;52947;50.842;6.084;2023-05-14T04:15:33;8.61;95.60
66144;SHT31;52947;50.842;6.084;2023-05-14T04:18:04;8.64;95.44
66144;SHT31;52947;50.842;6.084;2023-05-14T04:20:32;8.73;95.11
66144;SHT31;52947;50.842;6.084;2023-05-14T04:23:00;8.68;95.16
66144;SHT31;52947;50.842;6.084;2023-05-14T04:25:28;8.69;95.31
66144;SHT31;52947;50.842;6.084;2023-05-14T04:27:56;8.83;95.13
66144;SHT31;52947;50.842;6.084;2023-05-14T04:30:25;8.86;94.94
66144;SHT31;52947;50.842;6.084;2023-05-14T04:32:53;8.85;95.22
66144;SHT31;52947;50.842;6.084;2023-05-14T04:35:21;8.86;95.16
66144;SHT31;52947;50.842;6.084;2023-05-14T04:37:50;8.96;95.07
66144;SHT31;52947;50.842;6.084;2023-05-14T04:40:18;9.00;95.03
66144;SHT31;52947;50.842;6.084;2023-05-14T04:42:46;9.23;94.72
66144;SHT31;52947;50.842;6.084;2023-05-14T04:45:14;9.88;97.33
66144;SHT31;52947;50.842;6.084;2023-05-14T04:47:45;10.71;99.12
66144;SHT31;52947;50.842;6.084;2023-05-14T04:50:13;11.20;98.61
66144;SHT31;52947;50.842;6.084;2023-05-14T04:52:41;11.69;95.97
66144;SHT31;52947;50.842;6.084;2023-05-14T04:55:09;11.63;91.63
66144;SHT31;52947;50.842;6.084;2023-05-14T04:57:36;11.82;90.44
66144;SHT31;52947;50.842;6.084;2023-05-14T05:00:05;11.97;90.29
66144;SHT31;52947;50.842;6.084;2023-05-14T05:02:35;12.13;88.99
66144;SHT31;52947;50.842;6.084;2023-05-14T05:05:04;12.74;89.15
66144;SHT31;52947;50.842;6.084;2023-05-14T05:07:32;13.32;86.22
66144;SHT31;52947;50.842;6.084;2023-05-14T05:10:00;14.04;86.56
66144;SHT31;52947;50.842;6.084;2023-05-14T05:12:28;14.64;83.01
66144;SHT31;52947;50.842;6.084;2023-05-14T05:14:56;14.83;80.86
66144;SHT31;52947;50.842;6.084;2023-05-14T05:17:24;15.24;81.17
66144;SHT31;52947;50.842;6.084;2023-05-14T05:19:52;15.65;79.81
66144;SHT31;52947;50.842;6.084;2023-05-14T05:22:22;16.04;79.58
66144;SHT31;52947;50.842;6.084;2023-05-14T05:24:50;15.97;78.13
66144;SHT31;52947;50.842;6.084;2023-05-14T05:27:17;15.98;79.93
66144;SHT31;52947;50.842;6.084;2023-05-14T05:29:46;16.19;78.42
66144;SHT31;52947;50.842;6.084;2023-05-14T05:32:14;16.66;77.79
66144;SHT31;52947;50.842;6.084;2023-05-14T05:34:42;17.00;77.46
66144;SHT31;52947;50.842;6.084;2023-05-14T05:37:10;17.62;75.14
66144;SHT31;52947;50.842;6.084;2023-05-14T05:39:40;18.26;73.12
66144;SHT31;52947;50.842;6.084;2023-05-14T05:42:08;18.55;71.62
66144;SHT31;52947;50.842;6.084;2023-05-14T05:44:36;19.13;70.44
66144;SHT31;52947;50.842;6.084;2023-05-14T05:47:04;19.23;70.40
66144;SHT31;52947;50.842;6.084;2023-05-14T05:49:32;19.74;69.32
66144;SHT31;52947;50.842;6.084;2023-05-14T05:52:02;19.54;68.03
66144;SHT31;52947;50.842;6.084;2023-05-14T05:54:30;19.91;67.77
66144;SHT31;52947;50.842;6.084;2023-05-14T05:57:00;20.51;66.72
66144;SHT31;52947;50.842;6.084;2023-05-14T05:59:28;20.87;64.50
66144;SHT31;52947;50.842;6.084;2023-05-14T06:01:56;21.91;64.32
66144;SHT31;52947;50.842;6.084;2023-05-14T06:04:24;21.57;62.78
66144;SHT31;52947;50.842;6.084;2023-05-14T06:06:51;22.56;62.84
66144;SHT31;52947;50.842;6.084;2023-05-14T06:09:19;22.39;60.66
66144;SHT31;52947;50.842;6.084;2023-05-14T06:11:47;22.68;60.69
66144;SHT31;52947;50.842;6.084;2023-05-14T06:14:16;22.84;61.09
66144;SHT31;52947;50.842;6.084;2023-05-14T06:16:44;22.77;60.70
66144;SHT31;52947;50.842;6.084;2023-05-14T06:19:12;22.12;61.22
66144;SHT31;52947;50.842;6.084;2023-05-14T06:21:40;21.16;62.54
66144;SHT31;52947;50.842;6.084;2023-05-14T06:24:08;20.10;66.84
66144;SHT31;52947;50.842;6.084;2023-05-14T06:26:36;19.52;68.39
66144;SHT31;52947;50.842;6.084;2023-05-14T06:29:04;19.43;68.42
66144;SHT31;52947;50.842;6.084;2023-05-14T06:31:33;18.84;70.44
66144;SHT31;52947;50.842;6.084;2023-05-14T06:34:01;18.61;70.65
66144;SHT31;52947;50.842;6.084;2023-05-14T06:36:29;17.89;72.44
66144;SHT31;52947;50.842;6.084;2023-05-14T06:38:57;17.01;74.56
66144;SHT31;52947;50.842;6.084;2023-05-14T06:41:25;16.77;75.91
66144;SHT31;52947;50.842;6.084;2023-05-14T06:43:53;16.18;76.36
66144;SHT31;52947;50.842;6.084;2023-05-14T06:46:20;16.04;78.93
66144;SHT31;52947;50.842;6.084;2023-05-14T06:48:50;16.28;78.11
66144;SHT31;52947;50.842;6.084;2023-05-14T06:51:17;16.01;77.20
66144;SHT31;52947;50.842;6.084;2023-05-14T06:53:45;16.02;78.57
66144;SHT31;52947;50.842;6.084;2023-05-14T06:56:14;16.02;79.50
66144;SHT31;52947;50.842;6.084;2023-05-14T06:58:42;16.13;79.43
66144;SHT31;52947;50.842;6.084;2023-05-14T07:01:10;16.32;78.79
66144;SHT31;52947;50.842;6.084;2023-05-14T07:03:38;16.09;78.69
66144;SHT31;52947;50.842;6.084;2023-05-14T07:06:07;15.71;79.14
66144;SHT31;52947;50.842;6.084;2023-05-14T07:08:38;15.57;79.58
66144;SHT31;52947;50.842;6.084;2023-05-14T07:11:05;15.40;79.17
66144;SHT31;52947;50.842;6.084;2023-05-14T07:13:33;15.68;80.65
66144;SHT31;52947;50.842;6.084;2023-05-14T07:16:01;15.78;79.85
66144;SHT31;52947;50.842;6.084;2023-05-14T07:18:29;15.82;80.47
66144;SHT31;52947;50.842;6.084;2023-05-14T07:20:57;15.57;80.44
66144;SHT31;52947;50.842;6.084;2023-05-14T07:23:26;15.43;80.27
66144;SHT31;52947;50.842;6.084;2023-05-14T07:25:54;15.47;80.61
66144;SHT31;52947;50.842;6.084;2023-05-14T07:28:22;15.50;80.69
66144;SHT31;52947;50.842;6.084;2023-05-14T07:30:50;15.62;79.97
66144;SHT31;52947;50.842;6.084;2023-05-14T07:33:18;15.78;80.09
66144;SHT31;52947;50.842;6.084;2023-05-14T07:35:45;15.81;80.74
66144;SHT31;52947;50.842;6.084;2023-05-14T07:38:13;15.97;80.01
66144;SHT31;52947;50.842;6.084;2023-05-14T07:40:43;15.99;79.87
66144;SHT31;52947;50.842;6.084;2023-05-14T07:43:11;16.22;79.69
66144;SHT31;52947;50.842;6.084;2023-05-14T07:45:38;16.10;79.40
66144;SHT31;52947;50.842;6.084;2023-05-14T07:48:06;15.78;80.59
66144;SHT31;52947;50.842;6.084;2023-05-14T07:50:35;15.58;81.01
66144;SHT31;52947;50.842;6.084;2023-05-14T07:53:03;16.01;80.61
66144;SHT31;52947;50.842;6.084;2023-05-14T07:55:31;16.25;79.39
66144;SHT31;52947;50.842;6.084;2023-05-14T07:58:00;15.69;80.38
66144;SHT31;52947;50.842;6.084;2023-05-14T08:00:28;15.51;80.67
66144;SHT31;52947;50.842;6.084;2023-05-14T08:02:56;15.38;81.75
66144;SHT31;52947;50.842;6.084;2023-05-14T08:05:24;15.48;81.07
66144;SHT31;52947;50.842;6.084;2023-05-14T08:07:52;15.54;80.99
66144;SHT31;52947;50.842;6.084;2023-05-14T08:10:20;15.54;80.54
66144;SHT31;52947;50.842;6.084;2023-05-14T08:12:48;15.41;81.53
66144;SHT31;52947;50.842;6.084;2023-05-14T08:15:18;15.16;82.03
66144;SHT31;52947;50.842;6.084;2023-05-14T08:17:45;15.16;81.83
66144;SHT31;52947;50.842;6.084;2023-05-14T08:20:13;15.16;81.99
66144;SHT31;52947;50.842;6.084;2023-05-14T08:22:41;15.53;81.49
66144;SHT31;52947;50.842;6.084;2023-05-14T08:25:09;16.66;79.01
66144;SHT31;52947;50.842;6.084;2023-05-14T08:27:37;17.04;77.87
66144;SHT31;52947;50.842;6.084;2023-05-14T08:30:06;17.18;76.91
66144;SHT31;52947;50.842;6.084;2023-05-14T08:32:35;17.22;77.20
66144;SHT31;52947;50.842;6.084;2023-05-14T08:35:05;17.34;77.37
66144;SHT31;52947;50.842;6.084;2023-05-14T08:37:33;17.21;76.61
66144;SHT31;52947;50.842;6.084;2023-05-14T08:40:00;17.43;76.47
66144;SHT31;52947;50.842;6.084;2023-05-14T08:42:29;17.48;76.98
66144;SHT31;52947;50.842;6.084;2023-05-14T08:45:00;17.61;76.36
66144;SHT31;52947;50.842;6.084;2023-05-14T08:47:29;17.62;76.12
66144;SHT31;52947;50.842;6.084;2023-05-14T08:50:00;17.14;77.13
66144;SHT31;52947;50.842;6.084;2023-05-14T08:52:30;17.24;77.06
66144;SHT31;52947;50.842;6.084;2023-05-14T08:55:00;17.00;76.52
66144;SHT31;52947;50.842;6.084;2023-05-14T08:57:31;17.55;76.42
66144;SHT31;52947;50.842;6.084;2023-05-14T08:59:59;17.52;76.17
66144;SHT31;52947;50.842;6.084;2023-05-14T09:02:28;17.52;76.86
66144;SHT31;52947;50.842;6.084;2023-05-14T09:05:00;17.93;75.34
66144;SHT31;52947;50.842;6.084;2023-05-14T09:07:29;17.87;75.52
66144;SHT31;52947;50.842;6.084;2023-05-14T09:09:57;17.87;75.66
66144;SHT31;52947;50.842;6.084;2023-05-14T09:12:25;19.05;73.11
66144;SHT31;52947;50.842;6.084;2023-05-14T09:14:53;18.94;72.51
66144;SHT31;52947;50.842;6.084;2023-05-14T09:17:24;19.47;70.64
66144;SHT31;52947;50.842;6.084;2023-05-14T09:19:52;19.81;71.15
66144;SHT31;52947;50.842;6.084;2023-05-14T09:22:22;19.80;70.37
66144;SHT31;52947;50.842;6.084;2023-05-14T09:25:02;19.93;70.56
66144;SHT31;52947;50.842;6.084;2023-05-14T09:27:31;19.87;70.44
66144;SHT31;52947;50.842;6.084;2023-05-14T09:30:07;21.20;66.80
66144;SHT31;52947;50.842;6.084;2023-05-14T09:32:36;20.17;68.29
66144;SHT31;52947;50.842;6.084;2023-05-14T09:35:12;20.35;69.36
66144;SHT31;52947;50.842;6.084;2023-05-14T09:37:46;20.96;67.34
66144;SHT31;52947;50.842;6.084;2023-05-14T09:40:16;21.68;65.10
66144;SHT31;52947;50.842;6.084;2023-05-14T09:42:44;22.59;64.41
66144;SHT31;52947;50.842;6.084;2023-05-14T09:45:11;21.89;63.19
66144;SHT31;52947;50.842;6.084;2023-05-14T09:47:40;21.88;64.22
66144;SHT31;52947;50.842;6.084;2023-05-14T09:50:08;21.74;65.58
66144;SHT31;52947;50.842;6.084;2023-05-14T09:52:37;21.41;65.58
66144;SHT31;52947;50.842;6.084;2023-05-14T09:55:07;20.89;66.56
66144;SHT31;52947;50.842;6.084;2023-05-14T09:57:35;21.62;65.40
66144;SHT31;52947;50.842;6.084;2023-05-14T10:00:03;22.13;64.12
66144;SHT31;52947;50.842;6.084;2023-05-14T10:02:33;22.90;63.12
66144;SHT31;52947;50.842;6.084;2023-05-14T10:05:05;23.27;62.10
66144;SHT31;52947;50.842;6.084;2023-05-14T10:07:37;23.99;60.85
66144;SHT31;52947;50.842;6.084;2023-05-14T10:10:12;24.02;61.36
66144;SHT31;52947;50.842;6.084;2023-05-14T10:12:45;24.21;60.15
66144;SHT31;52947;50.842;6.084;2023-05-14T10:15:18;24.43;60.33
66144;SHT31;52947;50.842;6.084;2023-05-14T10:17:48;24.21;60.61
66144;SHT31;52947;50.842;6.084;2023-05-14T10:20:20;23.76;61.03
66144;SHT31;52947;50.842;6.084;2023-05-14T10:22:50;24.24;60.18
66144;SHT31;52947;50.842;6.084;2023-05-14T10:25:19;24.14;60.03
66144;SHT31;52947;50.842;6.084;2023-05-14T10:27:48;23.97;61.08
66144;SHT31;52947;50.842;6.084;2023-05-14T10:30:20;23.66;61.42
66144;SHT31;52947;50.842;6.084;2023-05-14T10:32:48;24.64;58.88
66144;SHT31;52947;50.842;6.084;2023-05-14T10:35:18;24.91;58.70
66144;SHT31;52947;50.842;6.084;2023-05-14T10:37:50;25.12;58.80
66144;SHT31;52947;50.842;6.084;2023-05-14T10:40:23;25.08;57.20
66144;SHT31;52947;50.842;6.084;2023-05-14T10:42:51;24.31;60.28
66144;SHT31;52947;50.842;6.084;2023-05-14T10:45:21;24.82;59.32
66144;SHT31;52947;50.842;6.084;2023-05-14T10:47:49;25.25;58.22
66144;SHT31;52947;50.842;6.084;2023-05-14T10:50:17;25.77;57.25
66144;SHT31;52947;50.842;6.084;2023-05-14T10:52:45;25.50;57.01
66144;SHT31;52947;50.842;6.084;2023-05-14T10:55:15;25.33;57.97
66144;SHT31;52947;50.842;6.084;2023-05-14T10:57:45;25.26;58.33
66144;SHT31;52947;50.842;6.084;2023-05-14T11:00:14;25.79;56.78
66144;SHT31;52947;50.842;6.084;2023-05-14T11:02:43;26.72;55.75
66144;SHT31;52947;50.842;6.084;2023-05-14T11:05:12;26.52;56.08
66144;SHT31;52947;50.842;6.084;2023-05-14T11:07:43;26.88;54.85
66144;SHT31;52947;50.842;6.084;2023-05-14T11:10:11;27.07;53.94
66144;SHT31;52947;50.842;6.084;2023-05-14T11:12:40;27.20;53.56
66144;SHT31;52947;50.842;6.084;2023-05-14T11:15:11;27.14;53.97
66144;SHT31;52947;50.842;6.084;2023-05-14T11:17:40;26.73;53.68
66144;SHT31;52947;50.842;6.084;2023-05-14T11:20:10;26.39;56.46
66144;SHT31;52947;50.842;6.084;2023-05-14T11:22:39;26.47;55.46
66144;SHT31;52947;50.842;6.084;2023-05-14T11:25:08;26.51;55.22
66144;SHT31;52947;50.842;6.084;2023-05-14T11:27:37;26.55;55.66
66144;SHT31;52947;50.842;6.084;2023-05-14T11:30:13;26.71;55.66
66144;SHT31;52947;50.842;6.084;2023-05-14T11:32:43;26.59;54.38
66144;SHT31;52947;50.842;6.084;2023-05-14T11:35:11;26.83;52.49
66144;SHT31;52947;50.842;6.084;2023-05-14T11:37:40;27.17;54.61
66144;SHT31;52947;50.842;6.084;2023-05-14T11:40:13;27.22;53.66
66144;SHT31;52947;50.842;6.084;2023-05-14T11:42:41;27.43;53.94
66144;SHT31;52947;50.842;6.084;2023-05-14T11:45:10;26.85;54.35
66144;SHT31;52947;50.842;6.084;2023-05-14T11:47:40;26.76;53.22
66144;SHT31;52947;50.842;6.084;2023-05-14T11:50:09;27.54;51.89
66144;SHT31;52947;50.842;6.084;2023-05-14T11:52:38;27.90;50.36
66144;SHT31;52947;50.842;6.084;2023-05-14T11:55:09;27.81;50.27
66144;SHT31;52947;50.842;6.084;2023-05-14T11:57:38;27.39;50.21
66144;SHT31;52947;50.842;6.084;2023-05-14T12:00:07;26.79;52.79
66144;SHT31;52947;50.842;6.084;2023-05-14T12:02:38;25.29;54.48
66144;SHT31;52947;50.842;6.084;2023-05-14T12:05:11;25.62;54.49
66144;SHT31;52947;50.842;6.084;2023-05-14T12:07:39;25.42;54.98
66144;SHT31;52947;50.842;6.084;2023-05-14T12:10:11;26.14;53.82
66144;SHT31;52947;50.842;6.084;2023-05-14T12:12:38;26.24;54.35
66144;SHT31;52947;50.842;6.084;2023-05-14T12:15:10;26.53;53.85
66144;SHT31;52947;50.842;6.084;2023-05-14T12:17:38;26.96;53.39
66144;SHT31;52947;50.842;6.084;2023-05-14T12:20:09;26.69;51.35
66144;SHT31;52947;50.842;6.084;2023-05-14T12:22:46;26.41;52.65
66144;SHT31;52947;50.842;6.084;2023-05-14T12:25:14;26.24;53.94
66144;SHT31;52947;50.842;6.084;2023-05-14T12:27:43;25.73;54.24
66144;SHT31;52947;50.842;6.084;2023-05-14T12:30:12;24.84;55.84
66144;SHT31;52947;50.842;6.084;2023-05-14T12:32:43;25.09;55.50
66144;SHT31;52947;50.842;6.084;2023-05-14T12:35:12;25.74;55.80
66144;SHT31;52947;50.842;6.084;2023-05-14T12:37:40;26.39;52.26
66144;SHT31;52947;50.842;6.084;2023-05-14T12:40:09;26.82;52.99
66144;SHT31;52947;50.842;6.084;2023-05-14T12:42:37;25.81;52.69
66144;SHT31;52947;50.842;6.084;2023-05-14T12:45:05;25.59;51.72
66144;SHT31;52947;50.842;6.084;2023-05-14T12:47:35;25.77;52.11
66144;SHT31;52947;50.842;6.084;2023-05-14T12:50:04;25.23;53.56
66144;SHT31;52947;50.842;6.084;2023-05-14T12:52:33;24.84;54.55
66144;SHT31;52947;50.842;6.084;2023-05-14T12:55:05;24.47;55.50
66144;SHT31;52947;50.842;6.084;2023-05-14T12:57:34;25.01;55.00
66144;SHT31;52947;50.842;6.084;2023-05-14T13:00:02;24.60;54.40
66144;SHT31;52947;50.842;6.084;2023-05-14T13:02:32;23.76;53.67
66144;SHT31;52947;50.842;6.084;2023-05-14T13:05:09;23.11;55.21
66144;SHT31;52947;50.842;6.084;2023-05-14T13:07:38;23.10;56.12
66144;SHT31;52947;50.842;6.084;2023-05-14T13:10:07;23.05;55.19
66144;SHT31;52947;50.842;6.084;2023-05-14T13:12:35;22.47;55.85
66144;SHT31;52947;50.842;6.084;2023-05-14T13:15:04;22.52;53.20
66144;SHT31;52947;50.842;6.084;2023-05-14T13:17:32;22.66;51.86
66144;SHT31;52947;50.842;6.084;2023-05-14T13:20:00;23.03;52.91
66144;SHT31;52947;50.842;6.084;2023-05-14T13:22:29;23.85;48.62
66144;SHT31;52947;50.842;6.084;2023-05-14T13:24:58;23.31;50.07
66144;SHT31;52947;50.842;6.084;2023-05-14T13:27:26;22.90;51.20
66144;SHT31;52947;50.842;6.084;2023-05-14T13:29:56;22.81;50.98
66144;SHT31;52947;50.842;6.084;2023-05-14T13:32:24;22.55;52.23
66144;SHT31;52947;50.842;6.084;2023-05-14T13:34:52;22.10;51.58
66144;SHT31;52947;50.842;6.084;2023-05-14T13:37:20;22.20;51.81
66144;SHT31;52947;50.842;6.084;2023-05-14T13:39:48;22.74;51.02
66144;SHT31;52947;50.842;6.084;2023-05-14T13:42:18;22.80;50.09
66144;SHT31;52947;50.842;6.084;2023-05-14T13:44:46;22.57;46.89
66144;SHT31;52947;50.842;6.084;2023-05-14T13:47:14;22.46;47.32
66144;SHT31;52947;50.842;6.084;2023-05-14T13:49:42;22.56;48.33
66144;SHT31;52947;50.842;6.084;2023-05-14T13:52:10;22.29;46.72
66144;SHT31;52947;50.842;6.084;2023-05-14T13:54:37;21.96;47.95
66144;SHT31;52947;50.842;6.084;2023-05-14T13:57:05;22.43;48.26
66144;SHT31;52947;50.842;6.084;2023-05-14T13:59:34;22.61;48.40
66144;SHT31;52947;50.842;6.084;2023-05-14T14:02:03;22.66;48.70
66144;SHT31;52947;50.842;6.084;2023-05-14T14:04:31;22.94;47.35
66144;SHT31;52947;50.842;6.084;2023-05-14T14:06:59;22.93;44.94
66144;SHT31;52947;50.842;6.084;2023-05-14T14:09:27;22.91;46.39
66144;SHT31;52947;50.842;6.084;2023-05-14T14:11:59;22.71;46.90
66144;SHT31;52947;50.842;6.084;2023-05-14T14:14:27;22.23;48.48
66144;SHT31;52947;50.842;6.084;2023-05-14T14:16:56;21.35;50.13
66144;SHT31;52947;50.842;6.084;2023-05-14T14:19:24;21.17;51.72
66144;SHT31;52947;50.842;6.084;2023-05-14T14:21:52;20.75;53.90
66144;SHT31;52947;50.842;6.084;2023-05-14T14:24:20;20.26;55.32
66144;SHT31;52947;50.842;6.084;2023-05-14T14:26:48;20.10;52.58
66144;SHT31;52947;50.842;6.084;2023-05-14T14:29:15;20.07;53.33
66144;SHT31;52947;50.842;6.084;2023-05-14T14:31:43;20.07;51.22
66144;SHT31;52947;50.842;6.084;2023-05-14T14:34:13;20.15;50.85
66144;SHT31;52947;50.842;6.084;2023-05-14T14:36:40;20.21;51.79
66144;SHT31;52947;50.842;6.084;2023-05-14T14:39:08;20.01;49.76
66144;SHT31;52947;50.842;6.084;2023-05-14T14:41:36;19.80;49.52
66144;SHT31;52947;50.842;6.084;2023-05-14T14:44:04;19.66;49.32
66144;SHT31;52947;50.842;6.084;2023-05-14T14:46:32;19.77;49.24
66144;SHT31;52947;50.842;6.084;2023-05-14T14:49:00;20.08;48.82
66144;SHT31;52947;50.842;6.084;2023-05-14T14:51:29;20.26;49.58
66144;SHT31;52947;50.842;6.084;2023-05-14T14:53:57;20.51;49.47
66144;SHT31;52947;50.842;6.084;2023-05-14T14:56:25;20.68;50.76
66144;SHT31;52947;50.842;6.084;2023-05-14T14:58:53;20.87;50.37
66144;SHT31;52947;50.842;6.084;2023-05-14T15:01:21;20.93;49.67
66144;SHT31;52947;50.842;6.084;2023-05-14T15:03:49;21.08;51.01
66144;SHT31;52947;50.842;6.084;2023-05-14T15:06:17;21.16;50.33
66144;SHT31;52947;50.842;6.084;2023-05-14T15:08:46;21.13;51.21
66144;SHT31;52947;50.842;6.084;2023-05-14T15:11:14;20.99;50.87
66144;SHT31;52947;50.842;6.084;2023-05-14T15:13:42;20.87;51.86
66144;SHT31;52947;50.842;6.084;2023-05-14T15:16:09;20.76;52.77
66144;SHT31;52947;50.842;6.084;2023-05-14T15:18:38;20.62;54.17
66144;SHT31;52947;50.842;6.084;2023-05-14T15:21:05;20.46;56.91
66144;SHT31;52947;50.842;6.084;2023-05-14T15:23:33;19.95;57.32
66144;SHT31;52947;50.842;6.084;2023-05-14T15:26:03;19.98;58.68
66144;SHT31;52947;50.842;6.084;2023-05-14T15:28:31;20.07;61.00
66144;SHT31;52947;50.842;6.084;2023-05-14T15:30:58;20.00;59.87
66144;SHT31;52947;50.842;6.084;2023-05-14T15:33:27;20.04;58.38
66144;SHT31;52947;50.842;6.084;2023-05-14T15:35:55;20.07;59.34
66144;SHT31;52947;50.842;6.084;2023-05-14T15:38:23;20.12;60.31
66144;SHT31;52947;50.842;6.084;2023-05-14T15:40:51;20.28;60.97
66144;SHT31;52947;50.842;6.084;2023-05-14T15:43:20;20.34;58.45
66144;SHT31;52947;50.842;6.084;2023-05-14T15:45:48;20.42;57.42